Time;durP1;ratioP1;P1;durP2;ratioP2;P2;SDS_P1;SDS_P2;PMS_P1;PMS_P2;Temp;Humidity;BMP_temperature;BMP_pressure;BME280_temperature;BME280_humidity;BME280_pressure;Samples;Min_cycle;Max_cycle;Signal;HPM_P1;HPM_P2
2022/03/16 00:00:19;;;;;;;109.30;82.30;;;;;;;6.54;46.20;98276.08;105462;1281;23222;-75
2022/03/16 00:03:06;;;;;;;125.20;89.50;;;;;;;6.46;46.44;98278.56;105473;1281;25267;-79
2022/03/16 00:05:34;;;;;;;141.50;90.70;;;;;;;6.42;46.95;98274.54;105500;1281;23370;-76
2022/03/16 00:08:02;;;;;;;121.20;82.50;;;;;;;6.40;46.49;98276.87;105739;1281;22571;-77
2022/03/16 00:10:30;;;;;;;153.10;98.10;;;;;;;6.33;46.60;98275.08;105179;1282;22694;-76
2022/03/16 00:12:57;;;;;;;148.10;100.00;;;;;;;6.30;46.82;98269.17;105385;1281;26613;-76
2022/03/16 00:15:25;;;;;;;111.50;81.80;;;;;;;6.29;46.98;98270.67;105448;1281;22871;-75
2022/03/16 00:17:54;;;;;;;116.70;86.00;;;;;;;6.25;47.43;98266.70;105444;1281;22694;-75
2022/03/16 00:20:21;;;;;;;146.50;96.20;;;;;;;6.23;47.02;98266.38;105575;1281;24420;-76
2022/03/16 00:22:49;;;;;;;141.00;95.50;;;;;;;6.22;47.16;98267.02;105159;1282;24507;-76
2022/03/16 00:25:17;;;;;;;144.10;94.20;;;;;;;6.20;47.08;98258.59;105679;1281;22559;-76
2022/03/16 00:27:47;;;;;;;139.90;90.30;;;;;;;6.20;46.98;98257.80;105577;1281;22562;-75
2022/03/16 00:30:15;;;;;;;132.40;88.80;;;;;;;6.19;46.97;98253.61;105437;1281;22741;-76
2022/03/16 00:32:42;;;;;;;121.60;86.40;;;;;;;6.15;47.53;98253.01;105797;1279;22721;-75
2022/03/16 00:35:10;;;;;;;128.30;90.40;;;;;;;6.11;47.49;98250.15;105936;1279;25429;-75
2022/03/16 00:37:38;;;;;;;131.20;88.30;;;;;;;6.11;47.67;98238.86;105452;1282;24227;-75
2022/03/16 00:40:09;;;;;;;110.40;83.60;;;;;;;6.07;48.15;98231.88;105515;1281;24409;-76
2022/03/16 00:42:38;;;;;;;94.30;78.40;;;;;;;6.03;48.19;98234.40;105663;1280;23128;-76
2022/03/16 00:45:06;;;;;;;76.50;67.40;;;;;;;6.05;48.36;98234.98;105746;1280;26527;-75
2022/03/16 00:47:34;;;;;;;57.70;51.50;;;;;;;6.09;49.37;98237.89;105299;1282;25520;-75
2022/03/16 00:50:02;;;;;;;41.80;37.80;;;;;;;6.24;49.42;98237.80;105318;1282;25441;-76
2022/03/16 00:52:32;;;;;;;30.60;27.70;;;;;;;6.46;49.38;98232.52;105764;1280;22688;-74
2022/03/16 00:55:00;;;;;;;25.90;23.10;;;;;;;6.76;49.52;98238.84;105845;1280;25526;-75
2022/03/16 00:57:28;;;;;;;32.10;24.90;;;;;;;7.06;48.94;98244.08;105888;1280;22703;-76
2022/03/16 00:59:58;;;;;;;28.10;21.20;;;;;;;7.30;48.54;98244.09;105622;1280;22693;-76
2022/03/16 01:02:26;;;;;;;27.00;21.60;;;;;;;7.49;48.29;98248.58;105723;1278;25363;-76
2022/03/16 01:04:54;;;;;;;22.80;20.30;;;;;;;7.63;48.07;98249.63;105707;1280;24236;-75
2022/03/16 01:07:24;;;;;;;22.30;19.90;;;;;;;7.73;48.04;98246.93;105647;1280;24288;-76
2022/03/16 01:09:54;;;;;;;28.70;20.30;;;;;;;7.81;47.81;98252.50;105636;1280;23131;-76
2022/03/16 01:12:22;;;;;;;24.50;21.30;;;;;;;7.86;47.71;98257.70;105470;1280;22549;-77
2022/03/16 01:14:50;;;;;;;21.50;19.30;;;;;;;7.90;47.75;98259.35;105707;1280;25307;-75
2022/03/16 01:17:18;;;;;;;21.70;19.40;;;;;;;7.92;47.89;98261.86;105655;1280;24286;-77
2022/03/16 01:19:46;;;;;;;24.80;20.10;;;;;;;7.95;47.79;98260.09;105611;1279;25386;-78
2022/03/16 01:22:14;;;;;;;21.10;19.00;;;;;;;7.96;47.84;98260.23;105794;1279;24357;-76
2022/03/16 01:24:42;;;;;;;22.50;19.50;;;;;;;7.96;47.68;98258.57;105403;1280;282682;-76
2022/03/16 01:27:11;;;;;;;20.40;18.50;;;;;;;7.96;47.55;98255.30;105703;1280;22984;-76
2022/03/16 01:29:39;;;;;;;22.30;18.80;;;;;;;7.97;47.59;98254.70;105434;1281;23107;-77
2022/03/16 01:32:08;;;;;;;23.00;20.60;;;;;;;7.96;47.42;98257.88;105703;1280;22778;-75
2022/03/16 01:34:42;;;;;;;23.50;21.00;;;;;;;7.95;47.45;98259.66;105604;1280;23972;-78
2022/03/16 01:37:10;;;;;;;24.90;22.30;;;;;;;7.93;47.42;98250.55;105374;1280;24412;-75
2022/03/16 01:39:38;;;;;;;23.60;21.20;;;;;;;7.91;47.41;98249.14;105779;1280;22486;-76
2022/03/16 01:42:07;;;;;;;26.40;23.50;;;;;;;7.89;47.41;98246.36;105577;1280;24438;-80
2022/03/16 01:44:46;;;;;;;24.90;22.40;;;;;;;7.85;47.30;98245.89;105471;1280;22570;-77
2022/03/16 01:47:19;;;;;;;26.60;23.90;;;;;;;7.82;47.57;98238.45;105677;1280;25519;-76
2022/03/16 01:49:49;;;;;;;;;;;;;;;7.78;47.49;98233.35;105977;1280;22698;-77
2022/03/16 01:52:26;;;;;;;23.50;21.10;;;;;;;7.73;47.69;98231.48;105749;1280;24348;-78
2022/03/16 01:54:54;;;;;;;23.70;21.40;;;;;;;7.69;47.72;98235.56;105642;1280;22559;-77
2022/03/16 01:57:23;;;;;;;23.20;21.10;;;;;;;7.66;47.73;98232.46;105965;1280;22763;-78
2022/03/16 01:59:51;;;;;;;23.20;20.90;;;;;;;7.63;47.71;98230.80;105843;1280;24304;-77
2022/03/16 02:02:19;;;;;;;22.60;20.30;;;;;;;7.60;48.10;98227.05;105670;1280;25434;-76
2022/03/16 02:04:48;;;;;;;23.50;21.10;;;;;;;7.57;48.22;98224.38;105698;1280;22735;-76
2022/03/16 02:07:16;;;;;;;22.10;19.90;;;;;;;7.52;48.43;98219.83;105803;1280;22704;-78
2022/03/16 02:09:44;;;;;;;24.70;19.00;;;;;;;7.50;48.55;98218.17;105745;1280;25546;-77
2022/03/16 02:12:13;;;;;;;26.70;19.10;;;;;;;7.46;48.46;98216.19;105788;1280;25408;-77
2022/03/16 02:14:41;;;;;;;21.70;19.70;;;;;;;7.42;48.65;98214.59;105751;1280;26731;-77
2022/03/16 02:17:09;;;;;;;21.40;19.40;;;;;;;7.38;48.69;98215.94;105938;1280;23053;-77
2022/03/16 02:19:37;;;;;;;21.00;18.90;;;;;;;7.35;49.18;98208.54;105660;1280;25326;-76
2022/03/16 02:22:09;;;;;;;24.80;20.80;;;;;;;7.30;50.27;98198.15;105563;1280;22549;-78
2022/03/16 02:24:37;;;;;;;25.20;20.20;;;;;;;7.25;50.24;98188.23;105682;1280;26661;-76
2022/03/16 02:27:05;;;;;;;21.00;18.70;;;;;;;7.19;50.79;98181.37;105532;1281;24437;-76
2022/03/16 02:29:34;;;;;;;22.00;19.80;;;;;;;7.14;51.05;98183.68;105268;1282;24239;-76
2022/03/16 02:32:02;;;;;;;19.90;18.00;;;;;;;7.08;50.71;98169.43;105664;1281;22542;-75
2022/03/16 02:34:30;;;;;;;19.00;17.20;;;;;;;7.01;51.93;98167.77;105641;1281;22655;-75
2022/03/16 02:36:59;;;;;;;19.20;17.40;;;;;;;6.90;53.84;98164.89;105659;1280;22623;-76
2022/03/16 02:39:27;;;;;;;19.40;17.50;;;;;;;6.78;54.39;98166.02;105663;1281;25500;-75
2022/03/16 02:41:55;;;;;;;19.10;17.40;;;;;;;6.68;53.45;98172.48;105662;1280;25385;-75
2022/03/16 02:44:23;;;;;;;20.10;18.20;;;;;;;6.60;54.36;98173.86;105634;1281;24262;-75
2022/03/16 02:46:51;;;;;;;19.60;17.50;;;;;;;6.52;54.78;98171.08;105654;1280;23935;-75
2022/03/16 02:49:19;;;;;;;20.40;18.40;;;;;;;6.44;55.55;98171.52;105679;1281;22600;-74
2022/03/16 02:51:47;;;;;;;20.20;18.50;;;;;;;6.35;54.64;98170.55;105665;1280;25435;-75
2022/03/16 02:54:15;;;;;;;22.10;20.00;;;;;;;6.31;54.09;98172.04;105607;1280;24444;-75
2022/03/16 02:56:46;;;;;;;20.70;18.80;;;;;;;6.27;54.42;98178.45;105730;1281;24412;-74
2022/03/16 02:59:15;;;;;;;21.40;19.40;;;;;;;6.22;55.65;98172.13;105659;1280;22821;-78
2022/03/16 03:01:44;;;;;;;21.10;18.90;;;;;;;6.18;55.40;98169.48;105465;1281;24460;-74
2022/03/16 03:04:12;;;;;;;21.50;19.70;;;;;;;6.12;57.59;98163.31;105668;1281;22550;-74
2022/03/16 03:06:40;;;;;;;22.50;20.40;;;;;;;6.07;57.69;98153.08;105429;1281;24462;-75
2022/03/16 03:09:08;;;;;;;21.50;19.40;;;;;;;6.00;57.39;98152.52;105699;1281;24523;-73
2022/03/16 03:11:36;;;;;;;21.30;19.10;;;;;;;5.97;56.44;98162.89;105664;1280;25363;-74
2022/03/16 03:14:04;;;;;;;23.30;21.10;;;;;;;5.97;56.20;98167.06;105675;1281;25323;-75
2022/03/16 03:16:32;;;;;;;25.60;23.10;;;;;;;5.97;56.17;98169.16;105364;1281;22703;-73
2022/03/16 03:19:00;;;;;;;27.70;24.90;;;;;;;5.95;56.96;98174.87;105421;1281;23035;-73
2022/03/16 03:21:28;;;;;;;26.50;23.90;;;;;;;5.92;56.29;98189.55;105577;1281;22855;-75
2022/03/16 03:23:56;;;;;;;27.40;25.10;;;;;;;5.92;55.85;98200.40;105640;1280;25398;-73
2022/03/16 03:26:24;;;;;;;28.90;26.30;;;;;;;5.91;56.89;98197.77;105703;1280;24274;-73
2022/03/16 03:28:52;;;;;;;25.70;23.10;;;;;;;5.90;56.23;98200.60;105594;1281;22579;-74
2022/03/16 03:31:20;;;;;;;24.70;22.30;;;;;;;5.85;56.62;98203.46;105651;1281;22683;-74
2022/03/16 03:33:48;;;;;;;22.50;20.40;;;;;;;5.80;56.50;98201.13;105435;1281;22640;-74
2022/03/16 03:36:16;;;;;;;20.90;18.90;;;;;;;5.77;57.72;98207.12;105577;1280;22601;-75
2022/03/16 03:38:44;;;;;;;22.30;20.30;;;;;;;5.76;58.34;98214.64;106002;1278;25404;-75
2022/03/16 03:41:11;;;;;;;34.60;31.30;;;;;;;5.76;57.61;98218.00;105613;1280;23512;-74
2022/03/16 03:43:40;;;;;;;22.70;20.60;;;;;;;5.77;57.22;98221.82;105700;1281;23206;-75
2022/03/16 03:46:10;;;;;;;24.00;22.00;;;;;;;5.79;56.85;98213.16;105687;1282;25491;-75
2022/03/16 03:48:38;;;;;;;23.70;21.70;;;;;;;5.81;57.12;98213.70;105615;1281;24118;-77
2022/03/16 03:51:06;;;;;;;24.20;21.80;;;;;;;5.83;56.85;98211.05;105636;1280;22687;-74
2022/03/16 03:53:34;;;;;;;25.10;22.70;;;;;;;5.83;56.92;98210.77;105507;1281;22599;-74
2022/03/16 03:56:02;;;;;;;26.00;23.60;;;;;;;5.78;57.39;98216.42;105529;1281;22701;-76
2022/03/16 03:58:30;;;;;;;24.70;22.10;;;;;;;5.75;57.05;98218.11;105737;1280;22643;-74
2022/03/16 04:00:58;;;;;;;22.70;20.60;;;;;;;5.71;57.25;98216.70;105736;1281;22604;-74
2022/03/16 04:03:26;;;;;;;21.80;19.70;;;;;;;5.66;57.42;98223.61;105337;1281;25429;-76
2022/03/16 04:05:54;;;;;;;21.20;19.30;;;;;;;5.66;57.79;98231.12;105528;1280;22673;-74
2022/03/16 04:08:22;;;;;;;22.00;20.00;;;;;;;5.67;58.18;98232.19;105678;1281;22859;-75
2022/03/16 04:10:50;;;;;;;22.10;20.20;;;;;;;5.65;58.09;98235.54;105628;1281;25386;-75
2022/03/16 04:13:18;;;;;;;24.20;21.90;;;;;;;5.66;58.22;98235.17;105863;1281;22871;-75
2022/03/16 04:15:45;;;;;;;24.60;22.40;;;;;;;5.66;58.60;98232.66;105857;1281;22706;-76
2022/03/16 04:18:13;;;;;;;24.90;22.70;;;;;;;5.66;58.58;98229.98;106021;1281;24263;-76
2022/03/16 04:20:41;;;;;;;27.40;24.70;;;;;;;5.64;58.18;98224.36;105920;1281;23347;-76
2022/03/16 04:23:09;;;;;;;35.20;31.10;;;;;;;5.63;58.11;98221.05;105703;1281;25409;-76
2022/03/16 04:25:37;;;;;;;29.90;27.20;;;;;;;5.62;58.04;98221.63;105775;1281;22631;-77
2022/03/16 04:28:05;;;;;;;28.30;25.70;;;;;;;5.58;57.97;98223.57;105799;1280;25410;-77
2022/03/16 04:35:20;;;;;;;29.10;26.30;;;;;;;5.43;58.25;98214.67;105819;1281;22686;-78
2022/03/16 04:37:48;;;;;;;29.20;26.50;;;;;;;5.42;58.37;98207.39;105832;1279;22978;-77
2022/03/16 04:40:16;;;;;;;27.10;24.80;;;;;;;5.43;59.13;98207.02;105557;1280;22584;-77
2022/03/16 04:42:44;;;;;;;31.00;28.10;;;;;;;5.42;58.64;98211.73;105316;1281;23213;-77
2022/03/16 04:45:12;;;;;;;33.30;30.40;;;;;;;5.39;59.61;98218.06;105886;1280;22561;-76
2022/03/16 04:47:40;;;;;;;35.90;32.60;;;;;;;5.39;59.52;98221.16;105388;1281;25382;-76
2022/03/16 04:50:09;;;;;;;37.40;33.60;;;;;;;5.40;59.32;98220.89;105981;1280;26542;-76
2022/03/16 04:52:47;;;;;;;37.20;33.30;;;;;;;5.39;59.53;98228.22;105883;1280;26660;-76
2022/03/16 04:55:16;;;;;;;37.40;33.80;;;;;;;5.39;59.65;98228.17;105793;1281;24090;-76
2022/03/16 04:57:44;;;;;;;36.70;33.10;;;;;;;5.39;59.33;98224.16;105986;1280;24344;-76
2022/03/16 05:00:12;;;;;;;35.80;32.10;;;;;;;5.40;59.59;98228.64;105733;1280;22531;-77
2022/03/16 05:02:40;;;;;;;33.40;30.20;;;;;;;5.41;59.75;98233.63;105668;1281;24253;-75
2022/03/16 05:05:10;;;;;;;36.00;32.40;;;;;;;5.42;59.62;98234.07;105481;1281;22592;-76
2022/03/16 05:07:39;;;;;;;31.60;28.50;;;;;;;5.41;59.90;98232.89;105623;1281;22650;-76
2022/03/16 05:10:09;;;;;;;32.20;29.20;;;;;;;5.40;59.81;98230.61;105925;1281;22537;-76
2022/03/16 05:12:42;;;;;;;33.00;29.80;;;;;;;5.40;59.74;98230.58;105760;1281;24304;-76
2022/03/16 05:15:14;;;;;;;30.40;27.50;;;;;;;5.39;60.05;98234.09;105629;1280;22564;-75
2022/03/16 05:17:42;;;;;;;34.50;31.30;;;;;;;5.37;59.94;98234.24;105563;1280;22543;-76
2022/03/16 05:20:12;;;;;;;33.80;30.60;;;;;;;5.35;59.92;98235.50;105578;1280;22555;-76
2022/03/16 05:22:42;;;;;;;32.50;29.10;;;;;;;5.33;59.86;98239.08;105499;1280;22639;-77
2022/03/16 05:25:12;;;;;;;32.50;29.40;;;;;;;5.31;59.88;98236.98;105724;1281;22704;-76
2022/03/16 05:27:40;;;;;;;29.90;26.70;;;;;;;5.29;60.19;98235.68;105417;1281;23940;-76
2022/03/16 05:30:10;;;;;;;28.40;25.80;;;;;;;5.29;60.34;98238.08;105938;1280;22563;-78
2022/03/16 05:32:41;;;;;;;28.40;25.50;;;;;;;5.28;60.72;98233.75;105920;1280;24451;-77
2022/03/16 05:35:11;;;;;;;28.90;26.00;;;;;;;5.26;60.78;98235.70;105612;1280;22705;-75
2022/03/16 05:37:40;;;;;;;30.30;27.30;;;;;;;5.24;61.07;98233.56;105956;1280;22904;-76
2022/03/16 05:40:10;;;;;;;36.50;33.10;;;;;;;5.27;61.48;98237.70;105704;1280;25726;-76
2022/03/16 05:42:38;;;;;;;38.10;33.90;;;;;;;5.29;61.39;98237.18;105774;1280;22551;-77
2022/03/16 05:45:07;;;;;;;34.50;31.20;;;;;;;5.32;61.26;98242.90;105616;1280;24869;-77
2022/03/16 05:47:35;;;;;;;39.10;35.20;;;;;;;5.33;61.04;98239.61;105722;1280;25355;-77
2022/03/16 05:50:04;;;;;;;40.00;35.80;;;;;;;5.34;61.13;98240.04;105884;1280;24396;-77
2022/03/16 05:52:35;;;;;;;40.80;36.50;;;;;;;5.37;61.27;98239.63;106001;1280;22543;-77
2022/03/16 05:55:07;;;;;;;40.50;36.20;;;;;;;5.41;61.32;98244.15;105763;1280;25509;-77
2022/03/16 05:57:39;;;;;;;43.90;37.90;;;;;;;5.47;61.78;98248.15;106368;1280;22706;-78
2022/03/16 06:00:11;;;;;;;43.20;38.10;;;;;;;5.50;61.66;98248.27;105725;1280;22728;-77
2022/03/16 06:02:39;;;;;;;42.30;38.00;;;;;;;5.52;61.74;98258.30;105961;1280;22763;-78
2022/03/16 06:05:08;;;;;;;38.20;34.60;;;;;;;5.51;62.18;98260.75;105507;1280;22553;-77
2022/03/16 06:07:37;;;;;;;34.90;31.60;;;;;;;5.48;62.84;98268.31;106085;1280;22556;-77
2022/03/16 06:10:07;;;;;;;35.50;31.80;;;;;;;5.46;62.41;98272.04;105784;1280;22550;-75
2022/03/16 06:12:54;;;;;;;38.90;34.90;;;;;;;5.48;62.78;98277.45;105616;1280;22728;-77
2022/03/16 06:15:24;;;;;;;48.10;43.30;;;;;;;5.52;62.90;98279.45;106128;1280;22715;-76
2022/03/16 06:17:58;;;;;;;55.90;50.20;;;;;;;5.54;64.20;98283.33;105561;1280;22623;-76
2022/03/16 06:20:31;;;;;;;46.60;41.90;;;;;;;5.53;64.22;98283.32;105811;1280;25379;-77
2022/03/16 06:22:59;;;;;;;42.80;38.90;;;;;;;5.54;64.24;98284.02;106194;1280;22724;-77
2022/03/16 06:25:27;;;;;;;38.00;34.50;;;;;;;5.56;64.74;98282.73;106206;1280;24399;-78
2022/03/16 06:27:55;;;;;;;35.00;31.60;;;;;;;5.60;64.36;98281.81;105865;1280;22557;-76
2022/03/16 06:30:23;;;;;;;36.30;32.70;;;;;;;5.65;64.45;98280.52;105905;1280;22869;-77
2022/03/16 06:32:51;;;;;;;39.60;35.50;;;;;;;5.71;64.20;98282.38;106023;1280;22664;-78
2022/03/16 06:35:19;;;;;;;38.60;34.60;;;;;;;5.77;64.07;98276.42;105678;1279;25385;-78
2022/03/16 06:37:47;;;;;;;39.50;35.60;;;;;;;5.82;63.76;98276.24;105827;1280;24372;-77
2022/03/16 06:40:15;;;;;;;39.10;35.20;;;;;;;5.86;63.88;98275.20;105824;1280;25332;-77
2022/03/16 06:42:51;;;;;;;34.70;31.40;;;;;;;5.91;63.85;98277.30;105765;1280;22553;-77
2022/03/16 06:45:20;;;;;;;34.50;31.30;;;;;;;5.95;64.62;98276.52;105996;1280;22562;-77
2022/03/16 06:47:48;;;;;;;37.30;31.80;;;;;;;5.97;64.34;98277.20;105702;1280;22707;-78
2022/03/16 06:50:18;;;;;;;35.30;32.00;;;;;;;6.02;63.69;98276.05;105777;1280;22604;-76
2022/03/16 06:52:47;;;;;;;39.80;35.60;;;;;;;6.08;64.02;98277.33;105600;1279;25548;-77
2022/03/16 06:55:15;;;;;;;41.40;37.30;;;;;;;6.11;63.72;98281.77;105589;1280;22556;-76
2022/03/16 06:57:42;;;;;;;41.50;37.30;;;;;;;6.16;63.38;98286.19;106017;1280;23955;-76
2022/03/16 07:00:13;;;;;;;42.30;37.80;;;;;;;6.20;63.19;98286.38;105751;1280;22863;-76
2022/03/16 07:02:57;;;;;;;40.80;36.10;;;;;;;6.21;63.40;98281.40;105713;1281;23161;-77
2022/03/16 07:05:34;;;;;;;43.00;38.40;;;;;;;6.21;63.88;98280.33;105830;1280;22596;-76
2022/03/16 07:08:04;;;;;;;43.80;39.20;;;;;;;6.20;63.68;98271.21;105696;1280;25383;-76
2022/03/16 07:10:34;;;;;;;44.20;39.80;;;;;;;6.21;64.22;98270.01;105632;1280;22601;-76
2022/03/16 07:13:11;;;;;;;45.50;40.70;;;;;;;6.21;64.10;98268.02;105562;1280;24406;-76
2022/03/16 07:15:41;;;;;;;48.40;43.60;;;;;;;6.20;63.92;98267.58;106000;1277;22566;-76
2022/03/16 07:18:10;;;;;;;47.60;43.00;;;;;;;6.21;63.76;98265.56;105441;1280;25337;-76
2022/03/16 07:20:39;;;;;;;52.00;46.30;;;;;;;6.23;63.76;98274.19;105621;1280;25398;-76
2022/03/16 07:23:15;;;;;;;48.10;40.50;;;;;;;6.26;63.61;98292.98;105730;1280;24398;-77
2022/03/16 07:25:50;;;;;;;43.60;38.80;;;;;;;6.33;63.54;98298.53;106025;1279;22562;-77
2022/03/16 07:28:20;;;;;;;50.80;43.10;;;;;;;6.37;63.72;98304.17;105748;1280;25305;-76
2022/03/16 07:30:48;;;;;;;45.30;40.50;;;;;;;6.37;63.66;98312.24;105717;1279;25331;-78
2022/03/16 07:33:16;;;;;;;47.50;42.70;;;;;;;6.41;63.65;98319.70;105668;1280;22691;-76
2022/03/16 07:35:45;;;;;;;47.40;41.50;;;;;;;6.46;63.62;98320.89;105742;1280;24411;-76
2022/03/16 07:38:13;;;;;;;46.00;41.60;;;;;;;6.48;64.08;98322.73;105648;1280;24488;-77
2022/03/16 07:40:41;;;;;;;45.90;41.00;;;;;;;6.48;63.85;98324.45;105831;1280;25331;-76
2022/03/16 07:43:10;;;;;;;43.90;39.70;;;;;;;6.47;64.02;98326.31;105620;1280;22768;-78
2022/03/16 07:45:38;;;;;;;41.90;37.80;;;;;;;6.51;64.01;98323.55;105935;1280;22704;-78
2022/03/16 07:48:06;;;;;;;44.50;40.00;;;;;;;6.54;64.17;98332.83;106038;1280;24411;-78
2022/03/16 07:50:34;;;;;;;44.40;39.80;;;;;;;6.56;63.86;98331.34;105949;1279;23941;-78
2022/03/16 07:53:03;;;;;;;46.50;41.40;;;;;;;6.59;64.03;98329.96;105819;1280;23162;-77
2022/03/16 07:55:31;;;;;;;44.20;39.80;;;;;;;6.59;64.15;98323.96;105781;1278;24124;-76
2022/03/16 07:57:59;;;;;;;45.00;40.30;;;;;;;6.62;64.24;98321.92;105766;1280;22622;-77
2022/03/16 08:00:27;;;;;;;47.50;42.80;;;;;;;6.64;64.14;98330.19;105744;1280;22534;-77
2022/03/16 08:02:59;;;;;;;48.60;44.10;;;;;;;6.70;63.81;98337.06;105379;1280;22685;-76
2022/03/16 08:05:27;;;;;;;46.20;41.30;;;;;;;6.79;63.95;98335.33;106005;1280;22817;-77
2022/03/16 08:07:55;;;;;;;44.40;39.70;;;;;;;6.88;63.89;98343.27;105930;1279;24271;-76
2022/03/16 08:10:23;;;;;;;44.40;39.70;;;;;;;6.99;63.74;98345.56;105802;1280;25365;-75
2022/03/16 08:12:51;;;;;;;43.40;39.10;;;;;;;7.07;63.74;98348.65;105669;1279;26747;-76
2022/03/16 08:15:19;;;;;;;45.40;40.50;;;;;;;7.13;63.54;98347.95;106005;1279;26709;-75
2022/03/16 08:17:47;;;;;;;49.80;44.90;;;;;;;7.17;63.29;98348.29;105700;1279;23048;-76
2022/03/16 08:20:15;;;;;;;51.50;46.60;;;;;;;7.22;62.37;98354.30;105821;1279;22580;-75
2022/03/16 08:22:43;;;;;;;51.80;46.60;;;;;;;7.25;61.70;98360.15;105621;1281;26750;-76
2022/03/16 08:25:12;;;;;;;48.80;44.00;;;;;;;7.26;61.33;98357.05;105707;1279;22699;-76
2022/03/16 08:27:40;;;;;;;48.60;44.10;;;;;;;7.27;61.19;98367.13;105708;1280;22761;-76
2022/03/16 08:30:09;;;;;;;46.80;42.00;;;;;;;7.31;61.21;98363.10;105670;1280;25424;-77
2022/03/16 08:32:37;;;;;;;51.70;45.60;;;;;;;7.37;60.62;98362.58;105794;1280;25503;-80
2022/03/16 08:35:06;;;;;;;47.00;42.60;;;;;;;7.36;59.38;98365.85;106104;1279;24965;-76
2022/03/16 08:37:35;;;;;;;48.40;44.00;;;;;;;7.39;59.88;98364.98;105530;1280;22636;-78
2022/03/16 08:40:05;;;;;;;48.80;44.20;;;;;;;7.43;60.06;98373.25;106010;1280;22704;-78
2022/03/16 08:42:34;;;;;;;50.20;45.50;;;;;;;7.40;59.36;98371.59;106009;1279;22626;-78
2022/03/16 08:45:02;;;;;;;51.90;46.40;;;;;;;7.35;59.08;98374.05;105967;1279;22797;-77
2022/03/16 08:47:31;;;;;;;56.20;51.10;;;;;;;7.34;59.51;98380.16;105976;1279;24346;-79
2022/03/16 08:49:59;;;;;;;51.50;46.50;;;;;;;7.44;59.62;98380.33;105994;1279;25665;-77
2022/03/16 08:52:27;;;;;;;50.70;45.50;;;;;;;7.51;58.95;98378.36;105999;1279;25433;-76
2022/03/16 08:54:55;;;;;;;48.80;43.70;;;;;;;7.59;58.60;98375.96;106100;1279;22822;-76
2022/03/16 08:57:23;;;;;;;52.30;47.00;;;;;;;7.66;58.41;98376.27;106216;1279;24246;-76
2022/03/16 08:59:51;;;;;;;49.70;44.90;;;;;;;7.77;58.49;98379.50;105708;1280;22570;-76
2022/03/16 09:02:19;;;;;;;51.40;46.20;;;;;;;7.90;58.46;98379.13;106056;1280;22646;-78
2022/03/16 09:04:47;;;;;;;45.90;41.40;;;;;;;8.01;58.28;98381.41;107828;1279;22577;-77
2022/03/16 09:07:15;;;;;;;49.10;44.20;;;;;;;7.98;55.18;98389.58;107423;1280;22577;-77
2022/03/16 09:09:43;;;;;;;49.90;44.90;;;;;;;7.90;56.20;98388.99;108643;1279;23835;-78
2022/03/16 09:12:11;;;;;;;50.70;45.90;;;;;;;7.94;57.03;98387.92;108145;1279;22565;-76
2022/03/16 09:14:40;;;;;;;47.10;42.10;;;;;;;8.05;56.64;98394.84;105745;1279;22874;-76
2022/03/16 09:17:10;;;;;;;46.50;42.20;;;;;;;8.09;55.72;98398.05;105816;1279;24238;-76
2022/03/16 09:19:39;;;;;;;46.70;42.20;;;;;;;8.18;56.45;98392.37;105921;1278;22563;-77
2022/03/16 09:22:07;;;;;;;58.90;42.90;;;;;;;8.37;56.54;98397.20;106082;1279;22536;-76
2022/03/16 09:24:39;;;;;;;46.20;41.40;;;;;;;8.56;55.95;98404.88;105886;1279;24228;-78
2022/03/16 09:27:07;;;;;;;44.30;40.20;;;;;;;8.75;55.82;98407.34;106042;1281;22628;-77
2022/03/16 09:29:35;;;;;;;42.90;38.80;;;;;;;8.87;53.66;98411.91;105648;1279;22554;-77
2022/03/16 09:32:07;;;;;;;42.20;37.80;;;;;;;8.87;51.42;98417.71;106071;1279;22563;-78
2022/03/16 09:34:37;;;;;;;39.50;35.60;;;;;;;8.84;51.06;98419.23;106012;1279;24098;-77
2022/03/16 09:37:05;;;;;;;37.30;33.90;;;;;;;8.87;50.75;98425.41;105928;1279;22679;-76
2022/03/16 09:39:34;;;;;;;38.00;34.10;;;;;;;8.92;51.05;98426.95;105808;1279;25416;-77
2022/03/16 09:42:04;;;;;;;34.90;31.70;;;;;;;9.00;51.65;98424.98;106089;1279;22728;-75
2022/03/16 09:44:32;;;;;;;36.20;33.00;;;;;;;9.12;51.36;98430.14;105861;1279;22587;-78
2022/03/16 09:47:01;;;;;;;34.70;31.20;;;;;;;9.24;51.58;98437.30;105893;1280;22684;-76
2022/03/16 09:49:30;;;;;;;37.10;33.20;;;;;;;9.34;50.45;98435.41;106083;1279;25058;-77
2022/03/16 09:51:59;;;;;;;37.00;33.60;;;;;;;9.37;50.74;98436.69;106082;1279;22629;-76
2022/03/16 09:54:27;;;;;;;38.20;34.40;;;;;;;9.35;50.29;98439.30;105789;1280;25057;-77
2022/03/16 09:56:56;;;;;;;37.90;34.40;;;;;;;9.31;48.90;98448.40;106007;1279;22669;-77
2022/03/16 09:59:23;;;;;;;39.10;35.30;;;;;;;9.25;48.75;98448.31;105963;1279;24477;-77
2022/03/16 10:02:06;;;;;;;36.00;32.50;;;;;;;9.25;49.27;98451.91;105980;1279;23602;-76
2022/03/16 10:04:36;;;;;;;35.70;32.30;;;;;;;9.39;49.54;98454.00;105863;1279;22550;-75
2022/03/16 10:07:05;;;;;;;37.20;33.80;;;;;;;9.57;49.21;98454.92;105478;1280;22737;-75
2022/03/16 10:15:17;;;;;;;37.30;33.40;;;;;;;10.03;49.38;98468.99;105777;1279;22578;-78
2022/03/16 10:17:52;;;;;;;35.00;31.90;;;;;;;10.22;47.81;98468.20;106082;1279;24454;-79
2022/03/16 10:20:22;;;;;;;33.30;30.10;;;;;;;10.36;46.90;98472.78;106079;1279;25223;-78
2022/03/16 10:23:06;;;;;;;37.20;33.80;;;;;;;10.41;45.99;98472.85;106132;1279;22608;-77
2022/03/16 10:25:37;;;;;;;33.90;30.90;;;;;;;10.41;45.82;98473.83;105892;1279;22598;-77
2022/03/16 10:28:12;;;;;;;49.60;33.10;;;;;;;10.53;46.18;98477.54;105867;1280;22576;-78
2022/03/16 10:30:52;;;;;;;38.80;35.20;;;;;;;10.73;47.28;98484.67;105870;1281;22585;-78
2022/03/16 10:33:20;;;;;;;38.10;34.20;;;;;;;10.95;46.82;98483.59;106118;1279;22580;-77
2022/03/16 10:35:56;;;;;;;36.00;32.70;;;;;;;11.08;45.55;98486.63;105925;1279;24348;-76
2022/03/16 10:38:25;;;;;;;30.10;27.10;;;;;;;11.21;44.51;98495.38;106145;1279;22872;-79
2022/03/16 10:40:55;;;;;;;27.40;24.90;;;;;;;11.32;45.32;98502.30;105770;1279;25513;-78
2022/03/16 10:49:05;;;;;;;34.60;31.30;;;;;;;11.65;44.82;98507.98;106155;1279;22744;-77
2022/03/16 10:51:34;;;;;;;36.90;33.30;;;;;;;11.83;44.75;98516.13;106086;1277;24320;-77
2022/03/16 10:54:18;;;;;;;37.80;34.20;;;;;;;12.00;45.10;98514.77;106114;1279;22629;-77
2022/03/16 10:56:48;;;;;;;35.00;31.90;;;;;;;12.12;44.68;98519.23;106099;1279;23210;-77
2022/03/16 10:59:17;;;;;;;37.60;34.20;;;;;;;12.17;43.44;98523.97;106065;1279;22705;-76
2022/03/16 11:01:48;;;;;;;37.60;33.50;;;;;;;12.22;44.32;98526.64;106064;1280;23674;-77
2022/03/16 11:04:18;;;;;;;37.60;33.80;;;;;;;12.36;43.95;98525.52;106193;1277;22569;-77
2022/03/16 11:06:47;;;;;;;36.70;33.20;;;;;;;12.45;42.74;98526.44;106163;1279;22549;-77
2022/03/16 11:09:17;;;;;;;38.60;34.50;;;;;;;12.46;43.28;98528.05;106148;1279;22553;-77
2022/03/16 11:14:34;;;;;;;39.20;35.40;;;;;;;12.57;43.46;98532.95;105775;1280;22550;-78
2022/03/16 11:17:03;;;;;;;39.30;35.60;;;;;;;12.56;42.31;98531.02;105736;1281;24404;-77
2022/03/16 11:19:32;;;;;;;39.30;35.10;;;;;;;12.44;42.77;98532.78;106149;1279;25590;-76
2022/03/16 11:22:24;;;;;;;38.30;34.40;;;;;;;12.43;42.64;98536.48;105907;1280;22600;-78
2022/03/16 11:25:16;;;;;;;40.90;36.90;;;;;;;12.43;43.17;98537.88;106087;1279;22566;-78
2022/03/16 11:27:51;;;;;;;40.90;37.00;;;;;;;12.44;43.09;98537.64;106120;1280;25602;-79
2022/03/16 11:30:29;;;;;;;39.20;35.40;;;;;;;12.53;42.76;98536.20;106306;1279;22560;-78
2022/03/16 11:33:04;;;;;;;41.10;37.00;;;;;;;12.74;43.14;98531.91;106310;1278;25412;-77
2022/03/16 11:35:40;;;;;;;40.50;36.60;;;;;;;12.88;41.74;98529.49;106275;1279;22537;-77
2022/03/16 11:38:13;;;;;;;40.70;36.70;;;;;;;12.92;41.90;98529.31;106156;1279;23380;-77
2022/03/16 11:40:45;;;;;;;38.00;34.10;;;;;;;13.01;41.73;98536.67;105695;1279;25338;-76
2022/03/16 11:43:15;;;;;;;38.80;34.70;;;;;;;13.10;41.75;98532.71;106196;1279;22708;-78
2022/03/16 11:45:51;;;;;;;36.00;32.50;;;;;;;13.18;40.35;98536.49;106277;1279;23146;-77